sensor_id;sensor_type;location;lat;lon;timestamp;P1;durP1;ratioP1;P2;durP2;ratioP2
17201;SDS011;8717;53.588;10.176;2023-07-20T00:01:49;4.93;;;1.97;;
17201;SDS011;8717;53.588;10.176;2023-07-20T00:04:16;4.07;;;1.40;;
17201;SDS011;8717;53.588;10.176;2023-07-20T00:06:42;1.73;;;1.40;;
17201;SDS011;8717;53.588;10.176;2023-07-20T00:09:09;2.80;;;1.53;;
17201;SDS011;8717;53.588;10.176;2023-07-20T00:11:37;3.53;;;1.30;;
17201;SDS011;8717;53.588;10.176;2023-07-20T00:14:05;1.93;;;1.57;;
17201;SDS011;8717;53.588;10.176;2023-07-20T00:16:33;2.97;;;1.40;;
17201;SDS011;8717;53.588;10.176;2023-07-20T00:19:00;2.30;;;1.40;;
17201;SDS011;8717;53.588;10.176;2023-07-20T00:21:26;2.10;;;1.60;;
17201;SDS011;8717;53.588;10.176;2023-07-20T00:23:53;3.00;;;1.50;;
17201;SDS011;8717;53.588;10.176;2023-07-20T00:26:20;2.63;;;1.70;;
17201;SDS011;8717;53.588;10.176;2023-07-20T00:28:50;3.57;;;1.80;;
17201;SDS011;8717;53.588;10.176;2023-07-20T00:31:19;2.80;;;1.53;;
17201;SDS011;8717;53.588;10.176;2023-07-20T00:33:46;2.37;;;1.57;;
17201;SDS011;8717;53.588;10.176;2023-07-20T00:36:13;3.40;;;1.80;;
17201;SDS011;8717;53.588;10.176;2023-07-20T00:38:42;1.80;;;1.53;;
17201;SDS011;8717;53.588;10.176;2023-07-20T00:41:08;3.33;;;1.83;;
17201;SDS011;8717;53.588;10.176;2023-07-20T00:43:35;5.30;;;1.90;;
17201;SDS011;8717;53.588;10.176;2023-07-20T00:46:02;3.70;;;1.70;;
17201;SDS011;8717;53.588;10.176;2023-07-20T00:48:30;2.43;;;1.70;;
17201;SDS011;8717;53.588;10.176;2023-07-20T00:50:58;2.20;;;1.40;;
17201;SDS011;8717;53.588;10.176;2023-07-20T00:53:26;2.67;;;1.50;;
17201;SDS011;8717;53.588;10.176;2023-07-20T00:55:53;2.67;;;1.33;;
17201;SDS011;8717;53.588;10.176;2023-07-20T00:58:20;2.87;;;1.60;;
17201;SDS011;8717;53.588;10.176;2023-07-20T01:00:47;1.80;;;1.33;;
17201;SDS011;8717;53.588;10.176;2023-07-20T01:03:14;2.70;;;1.50;;
17201;SDS011;8717;53.588;10.176;2023-07-20T01:36:41;2.63;;;1.80;;
17201;SDS011;8717;53.588;10.176;2023-07-20T01:39:10;3.23;;;2.20;;
17201;SDS011;8717;53.588;10.176;2023-07-20T01:41:37;4.00;;;1.90;;
17201;SDS011;8717;53.588;10.176;2023-07-20T01:44:05;2.33;;;2.00;;
17201;SDS011;8717;53.588;10.176;2023-07-20T01:46:32;2.10;;;1.90;;
17201;SDS011;8717;53.588;10.176;2023-07-20T01:48:58;3.97;;;2.20;;
17201;SDS011;8717;53.588;10.176;2023-07-20T01:51:25;3.20;;;2.27;;
17201;SDS011;8717;53.588;10.176;2023-07-20T01:53:53;4.33;;;2.90;;
17201;SDS011;8717;53.588;10.176;2023-07-20T01:56:20;3.13;;;2.30;;
17201;SDS011;8717;53.588;10.176;2023-07-20T01:58:47;2.73;;;2.53;;
17201;SDS011;8717;53.588;10.176;2023-07-20T02:01:14;3.77;;;2.50;;
17201;SDS011;8717;53.588;10.176;2023-07-20T02:03:40;4.67;;;2.80;;
17201;SDS011;8717;53.588;10.176;2023-07-20T02:06:07;3.37;;;2.33;;
17201;SDS011;8717;53.588;10.176;2023-07-20T02:08:34;3.77;;;2.80;;
17201;SDS011;8717;53.588;10.176;2023-07-20T02:11:02;3.63;;;2.70;;
17201;SDS011;8717;53.588;10.176;2023-07-20T02:13:30;5.60;;;2.23;;
17201;SDS011;8717;53.588;10.176;2023-07-20T02:15:56;3.80;;;2.73;;
17201;SDS011;8717;53.588;10.176;2023-07-20T02:18:23;4.47;;;2.60;;
17201;SDS011;8717;53.588;10.176;2023-07-20T02:20:52;3.23;;;2.80;;
17201;SDS011;8717;53.588;10.176;2023-07-20T02:23:19;3.60;;;2.80;;
17201;SDS011;8717;53.588;10.176;2023-07-20T02:25:45;4.40;;;2.63;;
17201;SDS011;8717;53.588;10.176;2023-07-20T02:28:14;3.30;;;2.87;;
17201;SDS011;8717;53.588;10.176;2023-07-20T02:30:41;2.80;;;2.60;;
17201;SDS011;8717;53.588;10.176;2023-07-20T02:33:08;3.13;;;2.83;;
17201;SDS011;8717;53.588;10.176;2023-07-20T02:35:34;4.23;;;3.00;;
17201;SDS011;8717;53.588;10.176;2023-07-20T02:38:01;3.03;;;2.63;;
17201;SDS011;8717;53.588;10.176;2023-07-20T02:40:28;3.27;;;2.93;;
17201;SDS011;8717;53.588;10.176;2023-07-20T02:42:55;5.83;;;3.00;;
17201;SDS011;8717;53.588;10.176;2023-07-20T02:45:23;4.87;;;3.27;;
17201;SDS011;8717;53.588;10.176;2023-07-20T02:47:51;4.00;;;3.53;;
17201;SDS011;8717;53.588;10.176;2023-07-20T02:50:17;3.83;;;3.07;;
17201;SDS011;8717;53.588;10.176;2023-07-20T02:52:44;3.67;;;3.37;;
17201;SDS011;8717;53.588;10.176;2023-07-20T02:55:11;3.57;;;3.27;;
17201;SDS011;8717;53.588;10.176;2023-07-20T02:57:38;3.93;;;3.10;;
17201;SDS011;8717;53.588;10.176;2023-07-20T03:00:05;4.90;;;3.60;;
17201;SDS011;8717;53.588;10.176;2023-07-20T03:02:34;4.50;;;3.30;;
17201;SDS011;8717;53.588;10.176;2023-07-20T03:05:01;4.60;;;3.20;;
17201;SDS011;8717;53.588;10.176;2023-07-20T03:07:31;4.97;;;3.20;;
17201;SDS011;8717;53.588;10.176;2023-07-20T03:09:58;4.53;;;3.50;;
17201;SDS011;8717;53.588;10.176;2023-07-20T03:12:25;4.43;;;3.50;;
17201;SDS011;8717;53.588;10.176;2023-07-20T03:14:52;3.60;;;3.30;;
17201;SDS011;8717;53.588;10.176;2023-07-20T03:17:22;5.30;;;3.30;;
17201;SDS011;8717;53.588;10.176;2023-07-20T03:19:51;3.50;;;3.20;;
17201;SDS011;8717;53.588;10.176;2023-07-20T03:22:17;3.87;;;3.23;;
17201;SDS011;8717;53.588;10.176;2023-07-20T03:24:44;3.90;;;3.07;;
17201;SDS011;8717;53.588;10.176;2023-07-20T03:27:11;4.33;;;3.53;;
17201;SDS011;8717;53.588;10.176;2023-07-20T03:29:38;3.93;;;2.73;;
17201;SDS011;8717;53.588;10.176;2023-07-20T03:32:05;3.97;;;3.27;;
17201;SDS011;8717;53.588;10.176;2023-07-20T03:34:32;3.83;;;3.43;;
17201;SDS011;8717;53.588;10.176;2023-07-20T03:37:00;5.37;;;3.17;;
17201;SDS011;8717;53.588;10.176;2023-07-20T03:39:29;3.40;;;3.10;;
17201;SDS011;8717;53.588;10.176;2023-07-20T03:41:57;3.87;;;3.37;;
17201;SDS011;8717;53.588;10.176;2023-07-20T03:44:24;4.00;;;3.27;;
17201;SDS011;8717;53.588;10.176;2023-07-20T03:46:50;4.33;;;3.93;;
17201;SDS011;8717;53.588;10.176;2023-07-20T03:49:17;3.90;;;3.50;;
17201;SDS011;8717;53.588;10.176;2023-07-20T03:51:44;3.70;;;3.30;;
17201;SDS011;8717;53.588;10.176;2023-07-20T03:54:12;3.33;;;3.03;;
17201;SDS011;8717;53.588;10.176;2023-07-20T03:56:39;3.67;;;2.70;;
17201;SDS011;8717;53.588;10.176;2023-07-20T03:59:05;3.47;;;3.07;;
17201;SDS011;8717;53.588;10.176;2023-07-20T04:01:32;4.97;;;2.90;;
17201;SDS011;8717;53.588;10.176;2023-07-20T04:04:02;3.47;;;2.70;;
17201;SDS011;8717;53.588;10.176;2023-07-20T04:06:30;3.37;;;2.73;;
17201;SDS011;8717;53.588;10.176;2023-07-20T04:08:57;3.43;;;3.13;;
17201;SDS011;8717;53.588;10.176;2023-07-20T04:11:25;4.37;;;3.63;;
17201;SDS011;8717;53.588;10.176;2023-07-20T04:13:52;5.47;;;3.40;;
17201;SDS011;8717;53.588;10.176;2023-07-20T04:16:19;3.50;;;3.17;;
17201;SDS011;8717;53.588;10.176;2023-07-20T04:18:46;4.63;;;3.40;;
17201;SDS011;8717;53.588;10.176;2023-07-20T04:21:13;3.53;;;3.00;;
17201;SDS011;8717;53.588;10.176;2023-07-20T04:23:40;3.30;;;3.00;;
17201;SDS011;8717;53.588;10.176;2023-07-20T04:26:07;3.70;;;3.40;;
17201;SDS011;8717;53.588;10.176;2023-07-20T04:28:35;5.83;;;3.23;;
17201;SDS011;8717;53.588;10.176;2023-07-20T04:31:11;3.30;;;3.00;;
17201;SDS011;8717;53.588;10.176;2023-07-20T04:33:38;3.60;;;2.87;;
17201;SDS011;8717;53.588;10.176;2023-07-20T04:36:05;5.60;;;3.50;;
17201;SDS011;8717;53.588;10.176;2023-07-20T04:38:34;5.97;;;3.57;;
17201;SDS011;8717;53.588;10.176;2023-07-20T04:41:08;3.07;;;2.77;;
17201;SDS011;8717;53.588;10.176;2023-07-20T04:43:42;4.50;;;3.13;;
17201;SDS011;8717;53.588;10.176;2023-07-20T04:46:10;3.20;;;2.80;;
17201;SDS011;8717;53.588;10.176;2023-07-20T04:48:37;3.63;;;3.23;;
17201;SDS011;8717;53.588;10.176;2023-07-20T04:51:05;3.30;;;2.83;;
17201;SDS011;8717;53.588;10.176;2023-07-20T04:53:32;3.10;;;2.80;;
17201;SDS011;8717;53.588;10.176;2023-07-20T04:56:00;3.50;;;3.20;;
17201;SDS011;8717;53.588;10.176;2023-07-20T04:58:27;4.50;;;3.07;;
17201;SDS011;8717;53.588;10.176;2023-07-20T05:00:56;4.40;;;3.10;;
17201;SDS011;8717;53.588;10.176;2023-07-20T05:03:23;4.73;;;3.10;;
17201;SDS011;8717;53.588;10.176;2023-07-20T05:05:49;3.30;;;2.90;;
17201;SDS011;8717;53.588;10.176;2023-07-20T05:08:16;3.27;;;2.87;;
17201;SDS011;8717;53.588;10.176;2023-07-20T05:10:43;3.07;;;2.77;;
17201;SDS011;8717;53.588;10.176;2023-07-20T05:13:10;4.77;;;3.07;;
17201;SDS011;8717;53.588;10.176;2023-07-20T05:15:37;3.20;;;2.73;;
17201;SDS011;8717;53.588;10.176;2023-07-20T05:18:07;3.30;;;2.90;;
17201;SDS011;8717;53.588;10.176;2023-07-20T05:20:34;3.70;;;2.80;;
17201;SDS011;8717;53.588;10.176;2023-07-20T05:23:02;4.37;;;2.70;;
17201;SDS011;8717;53.588;10.176;2023-07-20T05:25:29;3.87;;;3.03;;
17201;SDS011;8717;53.588;10.176;2023-07-20T05:27:56;2.67;;;2.47;;
17201;SDS011;8717;53.588;10.176;2023-07-20T05:30:23;2.83;;;2.40;;
17201;SDS011;8717;53.588;10.176;2023-07-20T05:32:49;3.13;;;2.43;;
17201;SDS011;8717;53.588;10.176;2023-07-20T05:35:18;3.77;;;2.30;;
17201;SDS011;8717;53.588;10.176;2023-07-20T05:37:45;4.83;;;2.40;;
17201;SDS011;8717;53.588;10.176;2023-07-20T05:40:12;3.47;;;2.10;;
17201;SDS011;8717;53.588;10.176;2023-07-20T05:42:43;2.23;;;2.03;;
17201;SDS011;8717;53.588;10.176;2023-07-20T05:45:10;3.03;;;2.03;;
17201;SDS011;8717;53.588;10.176;2023-07-20T05:47:37;4.37;;;2.67;;
17201;SDS011;8717;53.588;10.176;2023-07-20T05:50:04;3.40;;;2.30;;
17201;SDS011;8717;53.588;10.176;2023-07-20T05:52:33;2.67;;;1.60;;
17201;SDS011;8717;53.588;10.176;2023-07-20T05:54:59;2.93;;;1.90;;
17201;SDS011;8717;53.588;10.176;2023-07-20T05:57:26;2.70;;;1.90;;
17201;SDS011;8717;53.588;10.176;2023-07-20T05:59:53;2.67;;;1.93;;
17201;SDS011;8717;53.588;10.176;2023-07-20T06:02:19;2.33;;;1.90;;
17201;SDS011;8717;53.588;10.176;2023-07-20T06:04:46;2.53;;;1.70;;
17201;SDS011;8717;53.588;10.176;2023-07-20T06:07:13;3.33;;;1.97;;
17201;SDS011;8717;53.588;10.176;2023-07-20T06:09:41;2.07;;;1.63;;
17201;SDS011;8717;53.588;10.176;2023-07-20T06:12:08;2.33;;;1.60;;
17201;SDS011;8717;53.588;10.176;2023-07-20T06:14:35;1.70;;;1.60;;
17201;SDS011;8717;53.588;10.176;2023-07-20T06:17:02;1.83;;;1.30;;
17201;SDS011;8717;53.588;10.176;2023-07-20T06:19:29;2.43;;;1.20;;
17201;SDS011;8717;53.588;10.176;2023-07-20T06:21:55;2.23;;;1.17;;
17201;SDS011;8717;53.588;10.176;2023-07-20T06:24:22;2.87;;;1.30;;
17201;SDS011;8717;53.588;10.176;2023-07-20T06:26:50;2.80;;;1.20;;
17201;SDS011;8717;53.588;10.176;2023-07-20T06:29:17;2.00;;;1.10;;
17201;SDS011;8717;53.588;10.176;2023-07-20T06:31:44;2.67;;;1.37;;
17201;SDS011;8717;53.588;10.176;2023-07-20T06:34:11;3.00;;;1.30;;
17201;SDS011;8717;53.588;10.176;2023-07-20T06:36:37;2.70;;;1.17;;
17201;SDS011;8717;53.588;10.176;2023-07-20T06:39:04;1.60;;;1.20;;
17201;SDS011;8717;53.588;10.176;2023-07-20T06:41:31;3.27;;;1.27;;
17201;SDS011;8717;53.588;10.176;2023-07-20T06:43:59;4.67;;;1.30;;
17201;SDS011;8717;53.588;10.176;2023-07-20T06:46:25;2.63;;;1.10;;
17201;SDS011;8717;53.588;10.176;2023-07-20T06:48:53;4.10;;;1.30;;
17201;SDS011;8717;53.588;10.176;2023-07-20T06:51:19;2.73;;;1.33;;
17201;SDS011;8717;53.588;10.176;2023-07-20T06:53:47;1.70;;;1.17;;
17201;SDS011;8717;53.588;10.176;2023-07-20T06:56:13;2.83;;;1.40;;
17201;SDS011;8717;53.588;10.176;2023-07-20T06:58:40;3.40;;;1.80;;
17201;SDS011;8717;53.588;10.176;2023-07-20T07:01:08;1.53;;;1.00;;
17201;SDS011;8717;53.588;10.176;2023-07-20T07:03:35;1.83;;;1.13;;
17201;SDS011;8717;53.588;10.176;2023-07-20T07:06:01;2.90;;;1.10;;
17201;SDS011;8717;53.588;10.176;2023-07-20T07:08:28;1.93;;;1.00;;
17201;SDS011;8717;53.588;10.176;2023-07-20T07:10:55;4.23;;;1.23;;
17201;SDS011;8717;53.588;10.176;2023-07-20T07:13:22;2.78;;;0.88;;
17201;SDS011;8717;53.588;10.176;2023-07-20T07:15:48;3.67;;;1.13;;
17201;SDS011;8717;53.588;10.176;2023-07-20T07:18:16;1.60;;;0.85;;
17201;SDS011;8717;53.588;10.176;2023-07-20T07:20:49;1.50;;;0.80;;
17201;SDS011;8717;53.588;10.176;2023-07-20T07:23:17;3.67;;;1.00;;
17201;SDS011;8717;53.588;10.176;2023-07-20T07:25:44;2.53;;;1.00;;
17201;SDS011;8717;53.588;10.176;2023-07-20T07:28:10;2.60;;;0.90;;
17201;SDS011;8717;53.588;10.176;2023-07-20T07:30:38;2.85;;;0.80;;
17201;SDS011;8717;53.588;10.176;2023-07-20T07:33:05;2.92;;;1.27;;
17201;SDS011;8717;53.588;10.176;2023-07-20T07:35:33;2.30;;;0.95;;
17201;SDS011;8717;53.588;10.176;2023-07-20T07:38:00;1.98;;;1.10;;
17201;SDS011;8717;53.588;10.176;2023-07-20T07:40:26;2.63;;;1.00;;
17201;SDS011;8717;53.588;10.176;2023-07-20T07:42:53;2.80;;;1.08;;
17201;SDS011;8717;53.588;10.176;2023-07-20T07:45:20;2.33;;;1.00;;
17201;SDS011;8717;53.588;10.176;2023-07-20T07:47:46;2.03;;;1.20;;
17201;SDS011;8717;53.588;10.176;2023-07-20T07:50:13;2.60;;;1.30;;
17201;SDS011;8717;53.588;10.176;2023-07-20T07:52:41;3.13;;;1.27;;
17201;SDS011;8717;53.588;10.176;2023-07-20T07:55:08;3.47;;;1.42;;
17201;SDS011;8717;53.588;10.176;2023-07-20T07:57:35;2.30;;;1.25;;
17201;SDS011;8717;53.588;10.176;2023-07-20T08:00:01;2.55;;;1.38;;
17201;SDS011;8717;53.588;10.176;2023-07-20T08:02:30;2.90;;;1.55;;
17201;SDS011;8717;53.588;10.176;2023-07-20T08:04:56;4.33;;;1.33;;
17201;SDS011;8717;53.588;10.176;2023-07-20T08:07:23;3.08;;;1.10;;
17201;SDS011;8717;53.588;10.176;2023-07-20T08:09:51;4.47;;;1.40;;
17201;SDS011;8717;53.588;10.176;2023-07-20T08:12:18;2.53;;;1.70;;
17201;SDS011;8717;53.588;10.176;2023-07-20T08:14:45;3.30;;;1.60;;
17201;SDS011;8717;53.588;10.176;2023-07-20T08:17:12;2.42;;;1.50;;
17201;SDS011;8717;53.588;10.176;2023-07-20T08:19:38;4.10;;;2.05;;
17201;SDS011;8717;53.588;10.176;2023-07-20T08:22:07;3.53;;;1.88;;
17201;SDS011;8717;53.588;10.176;2023-07-20T08:24:33;3.13;;;1.50;;
17201;SDS011;8717;53.588;10.176;2023-07-20T08:27:03;3.53;;;1.50;;
17201;SDS011;8717;53.588;10.176;2023-07-20T08:29:29;4.57;;;1.75;;
17201;SDS011;8717;53.588;10.176;2023-07-20T08:31:56;3.30;;;1.90;;
17201;SDS011;8717;53.588;10.176;2023-07-20T08:34:23;4.85;;;1.73;;
17201;SDS011;8717;53.588;10.176;2023-07-20T08:36:50;4.70;;;2.33;;
17201;SDS011;8717;53.588;10.176;2023-07-20T08:39:16;3.85;;;1.83;;
17201;SDS011;8717;53.588;10.176;2023-07-20T08:41:43;4.93;;;2.38;;
17201;SDS011;8717;53.588;10.176;2023-07-20T08:44:11;6.78;;;1.80;;
17201;SDS011;8717;53.588;10.176;2023-07-20T08:46:39;3.63;;;2.05;;
17201;SDS011;8717;53.588;10.176;2023-07-20T08:49:07;4.00;;;1.63;;
17201;SDS011;8717;53.588;10.176;2023-07-20T08:51:34;3.92;;;1.80;;
17201;SDS011;8717;53.588;10.176;2023-07-20T08:54:02;4.57;;;1.77;;
17201;SDS011;8717;53.588;10.176;2023-07-20T08:56:29;4.90;;;1.67;;
17201;SDS011;8717;53.588;10.176;2023-07-20T08:58:59;3.42;;;1.85;;
17201;SDS011;8717;53.588;10.176;2023-07-20T09:01:28;3.45;;;1.75;;
17201;SDS011;8717;53.588;10.176;2023-07-20T09:03:55;5.15;;;1.90;;
17201;SDS011;8717;53.588;10.176;2023-07-20T09:06:22;4.07;;;1.75;;
17201;SDS011;8717;53.588;10.176;2023-07-20T09:08:49;3.85;;;1.50;;
17201;SDS011;8717;53.588;10.176;2023-07-20T09:11:16;3.20;;;2.10;;
17201;SDS011;8717;53.588;10.176;2023-07-20T09:13:43;2.92;;;1.40;;
17201;SDS011;8717;53.588;10.176;2023-07-20T09:16:11;5.38;;;1.80;;
17201;SDS011;8717;53.588;10.176;2023-07-20T09:18:41;4.75;;;1.98;;
17201;SDS011;8717;53.588;10.176;2023-07-20T09:21:07;5.20;;;2.03;;
17201;SDS011;8717;53.588;10.176;2023-07-20T09:23:35;3.40;;;1.73;;
17201;SDS011;8717;53.588;10.176;2023-07-20T09:26:09;3.92;;;1.60;;
17201;SDS011;8717;53.588;10.176;2023-07-20T09:28:39;3.22;;;1.40;;
17201;SDS011;8717;53.588;10.176;2023-07-20T09:31:14;3.95;;;1.70;;
17201;SDS011;8717;53.588;10.176;2023-07-20T09:33:44;2.72;;;1.52;;
17201;SDS011;8717;53.588;10.176;2023-07-20T09:36:11;3.97;;;1.88;;
17201;SDS011;8717;53.588;10.176;2023-07-20T09:38:38;5.65;;;2.25;;
17201;SDS011;8717;53.588;10.176;2023-07-20T09:41:06;5.93;;;2.00;;
17201;SDS011;8717;53.588;10.176;2023-07-20T09:43:33;2.95;;;1.30;;
17201;SDS011;8717;53.588;10.176;2023-07-20T09:46:00;2.28;;;1.10;;
17201;SDS011;8717;53.588;10.176;2023-07-20T09:48:27;2.95;;;1.17;;
17201;SDS011;8717;53.588;10.176;2023-07-20T09:50:57;3.00;;;1.33;;
17201;SDS011;8717;53.588;10.176;2023-07-20T09:53:24;2.10;;;1.00;;
17201;SDS011;8717;53.588;10.176;2023-07-20T09:55:52;31.27;;;2.85;;
17201;SDS011;8717;53.588;10.176;2023-07-20T09:58:19;3.40;;;1.20;;
17201;SDS011;8717;53.588;10.176;2023-07-20T10:00:48;1.67;;;0.90;;
17201;SDS011;8717;53.588;10.176;2023-07-20T10:03:18;2.22;;;1.10;;
17201;SDS011;8717;53.588;10.176;2023-07-20T10:05:46;2.33;;;0.73;;
17201;SDS011;8717;53.588;10.176;2023-07-20T10:08:18;1.50;;;0.70;;
17201;SDS011;8717;53.588;10.176;2023-07-20T10:10:48;2.13;;;0.75;;
17201;SDS011;8717;53.588;10.176;2023-07-20T10:13:16;3.03;;;2.55;;
17201;SDS011;8717;53.588;10.176;2023-07-20T10:15:46;2.75;;;0.80;;
17201;SDS011;8717;53.588;10.176;2023-07-20T10:18:17;2.95;;;0.85;;
17201;SDS011;8717;53.588;10.176;2023-07-20T10:20:48;1.98;;;0.80;;
17201;SDS011;8717;53.588;10.176;2023-07-20T10:23:18;2.67;;;0.90;;
17201;SDS011;8717;53.588;10.176;2023-07-20T10:25:45;1.98;;;0.80;;
17201;SDS011;8717;53.588;10.176;2023-07-20T10:28:12;2.42;;;0.98;;
17201;SDS011;8717;53.588;10.176;2023-07-20T10:30:40;1.38;;;0.80;;
17201;SDS011;8717;53.588;10.176;2023-07-20T10:33:08;1.67;;;0.70;;
17201;SDS011;8717;53.588;10.176;2023-07-20T10:35:50;2.75;;;1.17;;
17201;SDS011;8717;53.588;10.176;2023-07-20T10:38:18;1.50;;;0.75;;
17201;SDS011;8717;53.588;10.176;2023-07-20T10:40:53;1.40;;;0.70;;
17201;SDS011;8717;53.588;10.176;2023-07-20T10:43:20;0.90;;;0.60;;
17201;SDS011;8717;53.588;10.176;2023-07-20T10:45:48;1.35;;;0.70;;
17201;SDS011;8717;53.588;10.176;2023-07-20T10:48:17;2.03;;;0.75;;
17201;SDS011;8717;53.588;10.176;2023-07-20T10:50:46;3.65;;;0.90;;
17201;SDS011;8717;53.588;10.176;2023-07-20T10:53:29;3.42;;;1.00;;
17201;SDS011;8717;53.588;10.176;2023-07-20T10:56:05;3.95;;;1.00;;
17201;SDS011;8717;53.588;10.176;2023-07-20T10:58:33;4.20;;;1.10;;
17201;SDS011;8717;53.588;10.176;2023-07-20T11:01:00;2.20;;;0.90;;
17201;SDS011;8717;53.588;10.176;2023-07-20T11:03:31;3.15;;;1.10;;
17201;SDS011;8717;53.588;10.176;2023-07-20T11:05:59;3.17;;;1.05;;
17201;SDS011;8717;53.588;10.176;2023-07-20T11:09:05;3.60;;;0.75;;
17201;SDS011;8717;53.588;10.176;2023-07-20T11:11:36;3.28;;;0.90;;
17201;SDS011;8717;53.588;10.176;2023-07-20T11:14:04;1.83;;;0.88;;
17201;SDS011;8717;53.588;10.176;2023-07-20T11:16:36;1.55;;;0.73;;
17201;SDS011;8717;53.588;10.176;2023-07-20T11:19:05;2.95;;;1.00;;
17201;SDS011;8717;53.588;10.176;2023-07-20T11:21:42;6.97;;;1.60;;
17201;SDS011;8717;53.588;10.176;2023-07-20T11:24:11;2.53;;;0.90;;
17201;SDS011;8717;53.588;10.176;2023-07-20T11:26:45;2.85;;;1.20;;
17201;SDS011;8717;53.588;10.176;2023-07-20T11:29:13;11.53;;;2.30;;
17201;SDS011;8717;53.588;10.176;2023-07-20T11:31:42;4.63;;;1.40;;
17201;SDS011;8717;53.588;10.176;2023-07-20T11:34:10;2.43;;;0.90;;
17201;SDS011;8717;53.588;10.176;2023-07-20T11:36:39;2.78;;;1.30;;
17201;SDS011;8717;53.588;10.176;2023-07-20T11:39:07;4.57;;;1.27;;
17201;SDS011;8717;53.588;10.176;2023-07-20T11:41:37;4.43;;;1.10;;
17201;SDS011;8717;53.588;10.176;2023-07-20T11:44:05;7.00;;;1.38;;
17201;SDS011;8717;53.588;10.176;2023-07-20T11:46:32;3.25;;;1.30;;
17201;SDS011;8717;53.588;10.176;2023-07-20T11:49:00;2.80;;;0.90;;
17201;SDS011;8717;53.588;10.176;2023-07-20T11:51:27;2.40;;;0.90;;
17201;SDS011;8717;53.588;10.176;2023-07-20T11:53:55;4.05;;;1.15;;
17201;SDS011;8717;53.588;10.176;2023-07-20T11:56:22;1.65;;;0.90;;
17201;SDS011;8717;53.588;10.176;2023-07-20T11:58:53;1.63;;;0.60;;
17201;SDS011;8717;53.588;10.176;2023-07-20T12:01:21;1.95;;;0.60;;
17201;SDS011;8717;53.588;10.176;2023-07-20T12:03:49;1.98;;;0.70;;
17201;SDS011;8717;53.588;10.176;2023-07-20T12:06:16;2.35;;;0.77;;
17201;SDS011;8717;53.588;10.176;2023-07-20T12:08:43;1.73;;;0.50;;
17201;SDS011;8717;53.588;10.176;2023-07-20T12:11:10;1.73;;;0.60;;
17201;SDS011;8717;53.588;10.176;2023-07-20T12:13:37;3.35;;;0.75;;
17201;SDS011;8717;53.588;10.176;2023-07-20T12:16:12;2.05;;;0.80;;
17201;SDS011;8717;53.588;10.176;2023-07-20T12:18:40;2.40;;;0.55;;
17201;SDS011;8717;53.588;10.176;2023-07-20T12:21:07;2.53;;;0.60;;
17201;SDS011;8717;53.588;10.176;2023-07-20T12:23:37;1.93;;;0.73;;
17201;SDS011;8717;53.588;10.176;2023-07-20T12:26:08;2.05;;;0.93;;
17201;SDS011;8717;53.588;10.176;2023-07-20T12:28:38;3.55;;;1.02;;
17201;SDS011;8717;53.588;10.176;2023-07-20T12:31:06;2.80;;;0.93;;
17201;SDS011;8717;53.588;10.176;2023-07-20T12:33:36;4.10;;;1.20;;
17201;SDS011;8717;53.588;10.176;2023-07-20T12:36:03;3.53;;;1.13;;
17201;SDS011;8717;53.588;10.176;2023-07-20T12:38:31;4.23;;;0.87;;
17201;SDS011;8717;53.588;10.176;2023-07-20T12:41:00;3.93;;;1.10;;
17201;SDS011;8717;53.588;10.176;2023-07-20T12:43:27;3.23;;;0.83;;
17201;SDS011;8717;53.588;10.176;2023-07-20T12:45:54;2.23;;;1.00;;
17201;SDS011;8717;53.588;10.176;2023-07-20T12:48:21;3.33;;;1.07;;
17201;SDS011;8717;53.588;10.176;2023-07-20T12:50:49;9.13;;;1.73;;
17201;SDS011;8717;53.588;10.176;2023-07-20T12:53:16;4.57;;;1.43;;
17201;SDS011;8717;53.588;10.176;2023-07-20T12:55:43;3.53;;;1.00;;
17201;SDS011;8717;53.588;10.176;2023-07-20T12:58:11;2.30;;;0.83;;
17201;SDS011;8717;53.588;10.176;2023-07-20T13:00:39;4.30;;;1.10;;
17201;SDS011;8717;53.588;10.176;2023-07-20T13:03:06;1.80;;;0.90;;
17201;SDS011;8717;53.588;10.176;2023-07-20T13:05:33;3.07;;;1.00;;
17201;SDS011;8717;53.588;10.176;2023-07-20T13:08:02;3.50;;;1.10;;
17201;SDS011;8717;53.588;10.176;2023-07-20T13:10:30;3.50;;;1.17;;
17201;SDS011;8717;53.588;10.176;2023-07-20T13:12:57;3.97;;;1.37;;
17201;SDS011;8717;53.588;10.176;2023-07-20T13:15:24;3.57;;;1.17;;
17201;SDS011;8717;53.588;10.176;2023-07-20T13:17:56;2.03;;;0.90;;
17201;SDS011;8717;53.588;10.176;2023-07-20T13:20:23;6.87;;;1.40;;
17201;SDS011;8717;53.588;10.176;2023-07-20T13:22:50;5.45;;;1.08;;
17201;SDS011;8717;53.588;10.176;2023-07-20T13:25:19;2.53;;;0.90;;
17201;SDS011;8717;53.588;10.176;2023-07-20T13:27:45;4.15;;;1.27;;
17201;SDS011;8717;53.588;10.176;2023-07-20T13:30:12;4.65;;;1.10;;
17201;SDS011;8717;53.588;10.176;2023-07-20T13:32:41;3.45;;;1.10;;
17201;SDS011;8717;53.588;10.176;2023-07-20T13:35:08;2.85;;;0.70;;
17201;SDS011;8717;53.588;10.176;2023-07-20T13:37:35;1.45;;;0.77;;
17201;SDS011;8717;53.588;10.176;2023-07-20T13:40:02;5.00;;;1.10;;
17201;SDS011;8717;53.588;10.176;2023-07-20T13:42:31;2.65;;;1.10;;
17201;SDS011;8717;53.588;10.176;2023-07-20T13:44:59;2.63;;;1.00;;
17201;SDS011;8717;53.588;10.176;2023-07-20T13:47:26;4.22;;;1.23;;
17201;SDS011;8717;53.588;10.176;2023-07-20T13:49:53;5.10;;;0.90;;
17201;SDS011;8717;53.588;10.176;2023-07-20T13:52:21;4.03;;;1.10;;
17201;SDS011;8717;53.588;10.176;2023-07-20T13:54:47;2.22;;;0.80;;
17201;SDS011;8717;53.588;10.176;2023-07-20T13:57:14;2.53;;;0.93;;
17201;SDS011;8717;53.588;10.176;2023-07-20T13:59:42;5.25;;;1.05;;
17201;SDS011;8717;53.588;10.176;2023-07-20T14:02:09;3.47;;;1.13;;
17201;SDS011;8717;53.588;10.176;2023-07-20T14:04:36;2.20;;;0.82;;
17201;SDS011;8717;53.588;10.176;2023-07-20T14:07:03;2.90;;;0.82;;
17201;SDS011;8717;53.588;10.176;2023-07-20T14:09:30;2.50;;;1.08;;
17201;SDS011;8717;53.588;10.176;2023-07-20T14:11:57;2.97;;;1.00;;
17201;SDS011;8717;53.588;10.176;2023-07-20T14:14:24;4.13;;;1.00;;
17201;SDS011;8717;53.588;10.176;2023-07-20T14:16:52;3.05;;;1.00;;
17201;SDS011;8717;53.588;10.176;2023-07-20T14:19:21;2.25;;;0.70;;
17201;SDS011;8717;53.588;10.176;2023-07-20T14:21:47;2.00;;;0.70;;
17201;SDS011;8717;53.588;10.176;2023-07-20T14:24:14;2.03;;;0.55;;
17201;SDS011;8717;53.588;10.176;2023-07-20T14:26:41;2.72;;;0.95;;
17201;SDS011;8717;53.588;10.176;2023-07-20T14:29:07;2.28;;;0.70;;
17201;SDS011;8717;53.588;10.176;2023-07-20T14:31:34;1.10;;;0.80;;
17201;SDS011;8717;53.588;10.176;2023-07-20T14:34:02;2.30;;;0.75;;
17201;SDS011;8717;53.588;10.176;2023-07-20T14:36:29;2.17;;;0.68;;
17201;SDS011;8717;53.588;10.176;2023-07-20T14:38:55;2.33;;;1.00;;
17201;SDS011;8717;53.588;10.176;2023-07-20T14:41:22;1.73;;;1.00;;
17201;SDS011;8717;53.588;10.176;2023-07-20T14:43:49;3.42;;;0.73;;
17201;SDS011;8717;53.588;10.176;2023-07-20T14:46:15;1.92;;;0.65;;
17201;SDS011;8717;53.588;10.176;2023-07-20T14:48:42;1.77;;;0.60;;
17201;SDS011;8717;53.588;10.176;2023-07-20T14:51:10;1.23;;;0.52;;
17201;SDS011;8717;53.588;10.176;2023-07-20T14:53:37;2.72;;;0.73;;
17201;SDS011;8717;53.588;10.176;2023-07-20T14:56:03;1.27;;;0.52;;
17201;SDS011;8717;53.588;10.176;2023-07-20T14:58:31;1.88;;;1.10;;
17201;SDS011;8717;53.588;10.176;2023-07-20T15:00:58;2.65;;;0.70;;
17201;SDS011;8717;53.588;10.176;2023-07-20T15:03:24;4.20;;;0.85;;
17201;SDS011;8717;53.588;10.176;2023-07-20T15:05:51;3.65;;;0.82;;
17201;SDS011;8717;53.588;10.176;2023-07-20T15:08:19;1.83;;;0.75;;
17201;SDS011;8717;53.588;10.176;2023-07-20T15:10:46;1.77;;;0.70;;
17201;SDS011;8717;53.588;10.176;2023-07-20T15:13:13;0.60;;;0.50;;
17201;SDS011;8717;53.588;10.176;2023-07-20T15:15:39;2.65;;;0.63;;
17201;SDS011;8717;53.588;10.176;2023-07-20T15:18:06;2.30;;;0.90;;
17201;SDS011;8717;53.588;10.176;2023-07-20T15:20:33;1.67;;;0.70;;
17201;SDS011;8717;53.588;10.176;2023-07-20T15:23:00;1.15;;;0.82;;